Weather reports worldwide

Advertisment
Ancona, Italy (16190): temperature & dewpoint: 03.07.2020 03:00:00 - 09.07.2020 03:00:00 (CEST)Ancona, Italy (16190): wind speed: 03.07.2020 03:00:00 - 09.07.2020 03:00:00 (CEST)Ancona, Italy (16190): wind direction: 03.07.2020 03:00:00 - 09.07.2020 03:00:00 (CEST)Ancona, Italy (16190): precipitation: 03.07.2020 03:00:00 - 09.07.2020 03:00:00 (CEST)
Date & Time tt [°C] td [°C] ff [km/h] ff [kn] dd rr [mm]
09.07.2020 03:00:00 - - - - - -
09.07.2020 02:00:00 20,8 11,7 9 5 S 0,0
09.07.2020 01:00:00 20,5 11,6 9 5 S -
09.07.2020 00:00:00 20,7 11,8 9 5 S -
08.07.2020 23:00:00 20,8 11,9 9 5 S -
08.07.2020 22:00:00 21,7 10,5 4 2 S -
08.07.2020 21:00:00 21,9 11,3 8 4 E -
08.07.2020 20:00:00 23,2 10,9 5 3 E 0,0
08.07.2020 19:00:00 24,1 11,1 5 3 ENE -
08.07.2020 18:00:00 25,1 12,0 13 7 NNE -
08.07.2020 17:00:00 25,5 12,7 8 4 NE -
08.07.2020 16:00:00 25,5 12,0 11 6 NE -
08.07.2020 15:00:00 25,5 13,3 8 4 NE -
08.07.2020 14:00:00 25,9 12,3 8 4 N 0,0
08.07.2020 13:00:00 26,2 12,3 4 2 NNE -
08.07.2020 12:00:00 25,5 12,7 11 6 NNE -
08.07.2020 11:00:00 24,5 12,7 9 5 N -
08.07.2020 10:00:00 22,4 12,3 9 5 WNW -
08.07.2020 09:00:00 21,7 13,2 11 6 WNW -
08.07.2020 08:00:00 20,7 13,3 8 4 W 0,0
08.07.2020 07:00:00 19,2 12,4 5 3 WNW -
08.07.2020 06:00:00 18,7 11,2 8 4 WSW -
08.07.2020 05:00:00 19,4 12,6 4 2 NNW -
08.07.2020 04:00:00 19,2 12,4 5 3 WNW -
08.07.2020 03:00:00 18,9 10,4 4 2 WSW -
08.07.2020 02:00:00 19,5 10,4 4 2 W 0,0
08.07.2020 01:00:00 19,6 10,5 5 3 NNW -
08.07.2020 00:00:00 19,7 9,8 4 2 NNE -
07.07.2020 23:00:00 20,1 10,2 5 3 NNE -
07.07.2020 22:00:00 20,5 9,7 8 4 NNE -
07.07.2020 21:00:00 21,5 9,7 9 5 N -
07.07.2020 20:00:00 22,7 10,1 9 5 N 0,0
07.07.2020 19:00:00 23,5 11,5 8 4 N -
07.07.2020 18:00:00 23,4 13,5 15 8 N -
07.07.2020 17:00:00 24,7 13,8 9 5 NNE -
07.07.2020 16:00:00 24,5 13,0 9 5 NNE -
07.07.2020 15:00:00 25,1 12,6 8 4 NE -
07.07.2020 14:00:00 24,7 13,8 8 4 N 0,0
07.07.2020 13:00:00 23,6 12,2 9 5 ENE -
07.07.2020 12:00:00 23,8 13,0 15 8 NE -
07.07.2020 11:00:00 21,4 13,0 2 1 ENE -
07.07.2020 10:00:00 21,1 12,7 15 8 NE -
07.07.2020 09:00:00 21,3 13,9 11 6 SSW -
07.07.2020 08:00:00 21,9 14,5 13 7 NE 0,0
07.07.2020 07:00:00 22,2 14,5 21 11 ENE -
07.07.2020 06:00:00 23,4 15,9 24 13 E -
07.07.2020 05:00:00 23,4 18,6 4 2 NNE -
07.07.2020 04:00:00 22,8 15,1 8 4 S -
07.07.2020 03:00:00 22,5 16,2 9 5 S -
07.07.2020 02:00:00 23,5 14,9 9 5 S 0,0
07.07.2020 01:00:00 23,3 14,5 8 4 SSE -
07.07.2020 00:00:00 24,8 9,9 4 2 SE -
06.07.2020 23:00:00 24,0 12,9 2 1 NNE -
06.07.2020 22:00:00 24,5 13,3 4 2 NNW -
06.07.2020 21:00:00 25,8 13,9 8 4 W -
06.07.2020 20:00:00 27,5 14,8 2 1 NNW 0,0
06.07.2020 19:00:00 26,9 17,0 4 2 NNE -
06.07.2020 18:00:00 27,0 20,0 4 2 N -
06.07.2020 17:00:00 28,2 20,2 9 5 N -
06.07.2020 16:00:00 28,4 19,6 9 5 N -
06.07.2020 15:00:00 27,8 19,8 15 8 N -
06.07.2020 14:00:00 28,2 18,0 5 3 N 0,0
06.07.2020 13:00:00 28,0 21,0 8 4 N -
06.07.2020 12:00:00 27,3 16,8 16 9 N -
06.07.2020 11:00:00 26,9 20,9 16 9 NNW -
06.07.2020 10:00:00 26,0 19,1 9 5 NNW -
06.07.2020 09:00:00 24,7 15,0 13 7 NW -
06.07.2020 08:00:00 23,6 13,7 4 2 WNW 0,0
06.07.2020 07:00:00 22,7 12,0 13 7 NW -
06.07.2020 06:00:00 22,4 10,2 9 5 W -
06.07.2020 05:00:00 22,4 10,2 5 3 WSW -
06.07.2020 04:00:00 22,6 11,3 9 5 W -
06.07.2020 03:00:00 22,5 12,9 5 3 WSW -
06.07.2020 02:00:00 22,4 13,6 8 4 WSW 0,0
06.07.2020 01:00:00 22,5 15,3 8 4 W -
06.07.2020 00:00:00 23,1 16,8 5 3 WNW -
05.07.2020 23:00:00 23,5 17,4 9 5 NNW -
05.07.2020 22:00:00 23,6 16,8 15 8 N -
05.07.2020 21:00:00 24,2 16,1 5 3 N -
05.07.2020 20:00:00 25,3 16,6 9 5 N 0,0
05.07.2020 19:00:00 26,2 14,9 15 8 N -
05.07.2020 18:00:00 27,6 14,9 4 2 N -
05.07.2020 17:00:00 28,1 14,3 5 3 N -
05.07.2020 16:00:00 28,0 15,6 11 6 N -
05.07.2020 15:00:00 27,0 15,3 18 10 N -
05.07.2020 14:00:00 27,5 15,8 13 7 N 0,0
05.07.2020 13:00:00 27,0 15,6 9 5 N -
05.07.2020 12:00:00 27,3 16,2 4 2 N -
05.07.2020 11:00:00 27,3 17,1 13 7 NNE -
05.07.2020 10:00:00 26,6 16,5 8 4 NNE -
05.07.2020 09:00:00 25,4 15,3 15 8 NNE -
05.07.2020 08:00:00 24,2 14,2 13 7 N 0,0
05.07.2020 07:00:00 21,8 16,7 9 5 NNW -
05.07.2020 06:00:00 20,8 14,8 15 8 W -
05.07.2020 05:00:00 21,0 14,8 9 5 W -
05.07.2020 04:00:00 21,0 15,0 5 3 W -
05.07.2020 03:00:00 21,4 15,2 5 3 W -
05.07.2020 02:00:00 21,7 15,2 8 4 W 0,0
05.07.2020 01:00:00 21,8 14,4 11 6 WNW -
05.07.2020 00:00:00 23,3 15,5 16 9 NNW -
04.07.2020 23:00:00 23,2 14,9 13 7 NNW -
04.07.2020 22:00:00 23,4 14,6 15 8 NNW -
04.07.2020 21:00:00 23,8 13,9 18 10 N -
04.07.2020 20:00:00 24,8 13,9 16 9 N 0,0
04.07.2020 19:00:00 25,8 14,5 15 8 N -
04.07.2020 18:00:00 26,0 14,4 18 10 N -
04.07.2020 17:00:00 26,5 15,5 21 11 N -
04.07.2020 16:00:00 27,1 15,4 21 11 NNW -
04.07.2020 15:00:00 27,2 16,7 21 11 NNW -
04.07.2020 14:00:00 27,6 17,1 9 5 N 0,0
04.07.2020 13:00:00 28,0 16,6 16 9 NNE -
04.07.2020 12:00:00 27,5 17,0 9 5 N -
04.07.2020 11:00:00 26,6 19,7 8 4 N -
04.07.2020 10:00:00 24,0 20,1 11 6 NW -
04.07.2020 09:00:00 23,9 19,6 22 12 NW -
04.07.2020 08:00:00 22,2 17,9 18 10 W -
04.07.2020 07:00:00 21,1 17,6 18 10 W -
04.07.2020 06:00:00 20,5 18,0 9 5 WSW -
04.07.2020 05:00:00 20,7 18,0 11 6 SW -
04.07.2020 04:00:00 21,0 18,3 9 5 WSW -
04.07.2020 03:00:00 21,1 18,2 8 4 SW -
04.07.2020 02:00:00 21,0 17,9 9 5 WSW -
04.07.2020 01:00:00 21,7 18,4 8 4 W -
04.07.2020 00:00:00 22,3 18,8 11 6 NW -
03.07.2020 23:00:00 21,7 17,8 9 5 WNW -
03.07.2020 22:00:00 20,1 18,2 5 3 SW -
03.07.2020 21:00:00 20,4 17,5 21 11 SSW -
03.07.2020 20:00:00 21,1 18,4 13 7 SW -
03.07.2020 19:00:00 21,9 19,4 18 10 SSW -
03.07.2020 18:00:00 22,4 16,8 15 8 SSW -
03.07.2020 17:00:00 26,4 20,0 5 3 NNE -
03.07.2020 16:00:00 28,6 21,6 11 6 NNE -
03.07.2020 15:00:00 28,6 22,1 21 11 N -
03.07.2020 14:00:00 28,3 21,5 11 6 N 0,0
03.07.2020 13:00:00 27,2 21,0 8 4 N -
03.07.2020 12:00:00 26,8 21,0 13 7 N -
03.07.2020 11:00:00 25,9 20,8 16 9 N -
03.07.2020 10:00:00 25,3 20,5 16 9 N -
03.07.2020 09:00:00 24,2 20,3 15 8 NW -
03.07.2020 08:00:00 24,5 21,8 11 6 NW 0,0
03.07.2020 07:00:00 24,1 18,0 22 12 W -
03.07.2020 06:00:00 24,2 16,6 21 11 W -
03.07.2020 05:00:00 23,7 17,1 13 7 SW -
03.07.2020 04:00:00 23,9 17,6 9 5 S -
03.07.2020 03:00:00 23,8 18,2 11 6 S -

tt = temperature
td = dewpoint
ff = wind speed
dd = wind direction
rr = precipitation

Next stations